createdAt,value
2022-12-07T00:01:44.417Z,4.60
2022-12-07T00:04:15.049Z,4.90
2022-12-07T00:06:53.058Z,4.60
2022-12-07T00:09:20.610Z,4.60
2022-12-07T00:11:51.433Z,4.50
2022-12-07T00:14:19.814Z,4.40
2022-12-07T00:16:47.058Z,4.40
2022-12-07T00:19:15.151Z,4.60
2022-12-07T00:21:42.725Z,4.40
2022-12-07T00:24:11.457Z,4.50
2022-12-07T00:26:41.603Z,4.30
2022-12-07T00:29:16.952Z,4.50
2022-12-07T00:31:43.944Z,4.50
2022-12-07T00:34:20.096Z,4.60
2022-12-07T00:36:47.203Z,4.50
2022-12-07T00:39:14.562Z,4.50
2022-12-07T00:41:41.645Z,4.20
2022-12-07T00:44:08.546Z,3.90
2022-12-07T00:46:35.476Z,3.80
2022-12-07T00:49:02.441Z,3.80
2022-12-07T00:51:29.445Z,3.90
2022-12-07T00:53:56.300Z,3.70
2022-12-07T00:56:26.850Z,3.70
2022-12-07T00:59:17.494Z,3.80
2022-12-07T01:01:44.463Z,3.90
2022-12-07T01:04:11.430Z,4.00
2022-12-07T01:06:39.324Z,4.10
2022-12-07T01:09:07.163Z,4.00
2022-12-07T01:11:34.209Z,4.00
2022-12-07T01:14:01.993Z,4.20
2022-12-07T01:16:31.966Z,4.50
2022-12-07T01:19:00.903Z,4.50
2022-12-07T01:21:31.558Z,4.60
2022-12-07T01:23:59.469Z,4.50
2022-12-07T01:26:27.877Z,4.40
2022-12-07T01:28:56.396Z,4.40
2022-12-07T01:31:26.440Z,4.60
2022-12-07T01:33:56.653Z,4.50
2022-12-07T01:36:33.270Z,4.40
2022-12-07T01:39:05.235Z,4.30
2022-12-07T01:41:36.183Z,4.30
2022-12-07T01:44:22.285Z,4.40
2022-12-07T01:47:04.720Z,4.30
2022-12-07T01:49:50.485Z,4.50
2022-12-07T01:52:29.372Z,4.30
2022-12-07T01:55:01.444Z,4.50
2022-12-07T01:57:30.786Z,4.50
2022-12-07T02:00:01.948Z,4.50
2022-12-07T02:02:37.944Z,4.40
2022-12-07T02:05:07.325Z,4.30
2022-12-07T02:07:39.558Z,4.20
2022-12-07T02:10:33.347Z,4.20
2022-12-07T02:13:07.787Z,4.10
2022-12-07T02:15:45.521Z,4.20
2022-12-07T02:18:41.984Z,4.40
2022-12-07T02:21:31.078Z,4.40
2022-12-07T02:24:52.812Z,4.40
2022-12-07T02:27:48.361Z,4.30
2022-12-07T02:30:23.493Z,4.20
2022-12-07T02:33:07.353Z,4.10
2022-12-07T02:36:00.608Z,4.10
2022-12-07T02:38:32.585Z,4.10
2022-12-07T02:41:05.976Z,4.10
2022-12-07T02:43:40.306Z,4.10
2022-12-07T02:46:17.010Z,4.00
2022-12-07T02:48:45.181Z,4.10
2022-12-07T02:51:12.858Z,4.10
2022-12-07T02:53:43.083Z,4.20
2022-12-07T02:56:24.938Z,4.10
2022-12-07T02:59:08.407Z,4.40
2022-12-07T03:02:19.566Z,4.20
2022-12-07T03:05:14.102Z,4.20
2022-12-07T03:08:05.255Z,4.30
2022-12-07T03:11:03.757Z,4.00
2022-12-07T03:14:10.407Z,4.00
2022-12-07T03:16:46.613Z,4.30
2022-12-07T03:19:19.213Z,4.20
2022-12-07T03:21:52.813Z,4.00
2022-12-07T03:24:29.257Z,4.00
2022-12-07T03:27:19.904Z,4.10
2022-12-07T03:30:04.944Z,4.20
2022-12-07T03:32:55.163Z,4.10
2022-12-07T03:35:32.807Z,4.00
2022-12-07T03:38:31.448Z,4.10
2022-12-07T03:41:07.489Z,4.10
2022-12-07T03:43:35.030Z,4.10
2022-12-07T03:46:32.660Z,4.10
2022-12-07T03:49:15.308Z,4.10
2022-12-07T03:52:13.917Z,4.20
2022-12-07T03:55:21.128Z,4.00
2022-12-07T03:57:54.161Z,3.90
2022-12-07T04:00:21.473Z,4.10
2022-12-07T04:02:48.725Z,4.10
2022-12-07T04:05:15.666Z,4.20
2022-12-07T04:07:42.915Z,4.10
2022-12-07T04:10:10.601Z,4.10
2022-12-07T04:12:37.614Z,4.10
2022-12-07T04:15:06.136Z,4.10
2022-12-07T04:17:33.293Z,4.10
2022-12-07T04:20:00.631Z,4.00
2022-12-07T04:22:27.934Z,4.10
2022-12-07T04:24:54.786Z,4.10
2022-12-07T04:27:21.704Z,4.10
2022-12-07T04:29:48.690Z,4.10
2022-12-07T04:32:15.634Z,4.00
2022-12-07T04:34:42.508Z,4.10
2022-12-07T04:37:09.450Z,4.20
2022-12-07T04:39:36.471Z,4.20
2022-12-07T04:42:03.519Z,4.10
2022-12-07T04:44:31.445Z,3.90
2022-12-07T04:46:58.686Z,4.00
2022-12-07T04:49:26.231Z,4.20
2022-12-07T04:51:53.273Z,4.20
2022-12-07T04:54:20.368Z,4.20
2022-12-07T04:56:47.555Z,4.10
2022-12-07T04:59:16.413Z,4.20
2022-12-07T05:01:43.769Z,4.10
2022-12-07T05:04:11.358Z,4.10
2022-12-07T05:06:38.259Z,4.10
2022-12-07T05:09:06.037Z,4.10
2022-12-07T05:11:38.844Z,4.00
2022-12-07T05:14:17.602Z,4.00
2022-12-07T05:16:47.136Z,4.10
2022-12-07T05:19:14.633Z,3.90
2022-12-07T05:21:41.672Z,3.80
2022-12-07T05:24:11.337Z,3.70
2022-12-07T05:26:38.165Z,3.70
2022-12-07T05:29:05.770Z,3.70
2022-12-07T05:31:33.668Z,3.80
2022-12-07T05:34:00.649Z,3.90
2022-12-07T05:36:29.604Z,3.80
2022-12-07T05:38:56.648Z,3.90
2022-12-07T05:41:41.956Z,3.80
2022-12-07T05:44:09.029Z,3.80
2022-12-07T05:46:36.313Z,3.90
2022-12-07T05:49:03.373Z,3.70
2022-12-07T05:51:30.341Z,3.70
2022-12-07T05:53:57.318Z,3.70
2022-12-07T05:56:24.282Z,3.90
2022-12-07T05:59:09.588Z,4.10
2022-12-07T06:01:36.498Z,3.80
2022-12-07T06:04:03.601Z,3.90
2022-12-07T06:06:30.525Z,3.80
2022-12-07T06:08:57.439Z,4.00
2022-12-07T06:11:43.320Z,4.00
2022-12-07T06:14:10.301Z,4.10
2022-12-07T06:16:37.279Z,4.10
2022-12-07T06:19:04.290Z,4.10
2022-12-07T06:21:31.169Z,4.00
2022-12-07T06:23:58.020Z,4.00
2022-12-07T06:26:25.074Z,4.00
2022-12-07T06:28:52.309Z,4.00
2022-12-07T06:31:19.242Z,4.00
2022-12-07T06:33:46.208Z,4.00
2022-12-07T06:36:13.125Z,4.00
2022-12-07T06:38:40.495Z,4.10
2022-12-07T06:41:09.445Z,3.80
2022-12-07T06:43:36.501Z,3.70
2022-12-07T06:46:04.970Z,3.70
2022-12-07T06:48:31.937Z,3.70
2022-12-07T06:50:58.894Z,3.60
2022-12-07T06:53:25.984Z,3.70
2022-12-07T06:55:52.915Z,3.80
2022-12-07T06:58:19.821Z,3.80
2022-12-07T07:00:46.989Z,3.80
2022-12-07T07:03:14.050Z,3.90
2022-12-07T07:05:41.118Z,4.00
2022-12-07T07:08:24.416Z,4.00
2022-12-07T07:10:51.804Z,4.10
2022-12-07T07:13:18.766Z,4.20
2022-12-07T07:15:45.794Z,4.10
2022-12-07T07:18:13.057Z,4.10
2022-12-07T07:20:40.132Z,4.10
2022-12-07T07:23:07.362Z,3.80
2022-12-07T07:25:34.390Z,3.80
2022-12-07T07:28:01.470Z,3.80
2022-12-07T07:30:28.806Z,3.80
2022-12-07T07:33:01.159Z,3.70
2022-12-07T07:35:30.301Z,3.70
2022-12-07T07:37:57.317Z,3.70
2022-12-07T07:40:25.792Z,3.80
2022-12-07T07:42:54.740Z,3.70
2022-12-07T07:45:23.653Z,3.80
2022-12-07T07:47:50.997Z,3.80
2022-12-07T07:50:18.957Z,3.90
2022-12-07T07:52:45.989Z,4.00
2022-12-07T07:55:13.929Z,3.80
2022-12-07T07:57:41.606Z,3.90
2022-12-07T08:00:14.172Z,3.80
2022-12-07T08:02:43.819Z,3.80
2022-12-07T08:05:12.967Z,3.80
2022-12-07T08:07:40.607Z,3.90
2022-12-07T08:10:10.183Z,3.90
2022-12-07T08:13:02.104Z,3.80
2022-12-07T08:15:31.627Z,3.70
2022-12-07T08:17:59.396Z,3.70
2022-12-07T08:20:26.591Z,3.80
2022-12-07T08:22:53.857Z,3.90
2022-12-07T08:25:21.766Z,3.90
2022-12-07T08:27:49.404Z,4.00
2022-12-07T08:30:16.847Z,4.00
2022-12-07T08:32:46.369Z,4.00
2022-12-07T08:35:13.958Z,4.10
2022-12-07T08:37:41.941Z,4.00
2022-12-07T08:40:15.948Z,4.00
2022-12-07T08:42:51.188Z,4.00
2022-12-07T08:45:24.923Z,4.10
2022-12-07T08:48:15.270Z,4.20
2022-12-07T08:50:49.103Z,4.50
2022-12-07T08:53:16.916Z,4.40
2022-12-07T08:55:47.820Z,4.30
2022-12-07T08:58:15.034Z,4.30
2022-12-07T09:00:41.906Z,4.20
2022-12-07T09:03:08.971Z,4.30
2022-12-07T09:05:35.960Z,4.40
2022-12-07T09:08:03.564Z,4.60
2022-12-07T09:10:30.920Z,4.50
2022-12-07T09:13:01.715Z,4.80
2022-12-07T09:15:29.954Z,4.80
2022-12-07T09:17:56.900Z,4.90
2022-12-07T09:20:27.866Z,4.80
2022-12-07T09:22:55.435Z,4.80
2022-12-07T09:25:22.534Z,4.90
2022-12-07T09:27:49.507Z,4.90
2022-12-07T09:30:16.508Z,5.00
2022-12-07T09:32:43.480Z,4.90
2022-12-07T09:35:10.845Z,4.90
2022-12-07T09:37:37.761Z,4.90
2022-12-07T09:40:06.445Z,4.90
2022-12-07T09:42:45.653Z,4.90
2022-12-07T09:45:21.085Z,4.90
2022-12-07T09:47:48.314Z,5.00
2022-12-07T09:50:24.318Z,5.00
2022-12-07T09:52:52.328Z,5.10
2022-12-07T09:55:30.471Z,5.20
2022-12-07T09:57:59.346Z,5.30
2022-12-07T10:00:26.551Z,5.10
2022-12-07T10:03:00.170Z,5.10
2022-12-07T10:05:42.750Z,5.20
2022-12-07T10:08:14.038Z,5.30
2022-12-07T10:10:41.123Z,5.40
2022-12-07T10:13:15.456Z,5.30
2022-12-07T10:15:54.946Z,5.50
2022-12-07T10:18:42.950Z,5.20
2022-12-07T10:21:12.467Z,5.40
2022-12-07T10:24:11.379Z,5.40
2022-12-07T10:26:53.433Z,5.30
2022-12-07T10:29:54.030Z,5.20
2022-12-07T10:32:20.822Z,5.30
2022-12-07T10:34:52.147Z,5.40
2022-12-07T10:37:26.705Z,5.30
2022-12-07T10:39:58.233Z,5.30
2022-12-07T10:42:31.447Z,5.30
2022-12-07T10:45:19.201Z,5.50
2022-12-07T10:48:09.286Z,5.40
2022-12-07T10:50:49.738Z,5.30
2022-12-07T10:53:31.625Z,5.50
2022-12-07T10:56:18.598Z,5.70
2022-12-07T10:59:09.324Z,5.60
2022-12-07T11:01:51.157Z,5.70
2022-12-07T11:04:57.368Z,5.80
2022-12-07T11:07:52.218Z,5.70
2022-12-07T11:10:28.297Z,5.80
2022-12-07T11:13:33.592Z,5.50
2022-12-07T11:16:24.806Z,5.60
2022-12-07T11:19:28.214Z,5.60
2022-12-07T11:22:02.029Z,5.60
2022-12-07T11:24:41.687Z,5.60
2022-12-07T11:27:31.502Z,5.70
2022-12-07T11:30:10.406Z,5.70
2022-12-07T11:32:52.611Z,5.80
2022-12-07T11:35:47.177Z,5.80
2022-12-07T11:38:28.423Z,5.80
2022-12-07T11:41:13.955Z,5.80
2022-12-07T11:44:09.026Z,5.80
2022-12-07T11:46:52.667Z,5.90
2022-12-07T11:49:37.004Z,6.00
2022-12-07T11:52:07.538Z,6.20
2022-12-07T11:54:41.931Z,6.20
2022-12-07T11:57:26.025Z,6.20
2022-12-07T12:00:02.913Z,6.10
2022-12-07T12:03:02.229Z,6.30
2022-12-07T12:05:30.191Z,6.20
2022-12-07T12:11:37.048Z,6.50
2022-12-07T12:14:49.849Z,6.80
2022-12-07T12:17:33.460Z,6.70
2022-12-07T12:20:00.297Z,6.70
2022-12-07T12:22:59.357Z,6.60
2022-12-07T12:25:31.946Z,6.50
2022-12-07T12:28:00.932Z,6.50
2022-12-07T12:30:38.703Z,6.60
2022-12-07T12:33:29.816Z,6.40
2022-12-07T12:36:27.978Z,6.40
2022-12-07T12:39:17.128Z,6.40
2022-12-07T12:41:49.660Z,6.50
2022-12-07T12:44:16.512Z,6.40
2022-12-07T12:47:26.594Z,6.40
2022-12-07T12:50:32.379Z,6.50
2022-12-07T12:53:00.128Z,6.50
2022-12-07T12:55:53.498Z,6.50
2022-12-07T12:58:20.350Z,6.60
2022-12-07T13:00:50.083Z,6.70
2022-12-07T13:03:32.709Z,6.50
2022-12-07T13:06:25.395Z,6.60
2022-12-07T13:08:58.718Z,6.60
2022-12-07T13:11:37.234Z,6.70
2022-12-07T13:14:40.760Z,6.70
2022-12-07T13:17:32.600Z,6.60
2022-12-07T13:20:03.478Z,6.50
2022-12-07T13:22:38.794Z,6.50
2022-12-07T13:25:34.696Z,6.50
2022-12-07T13:28:22.926Z,6.50
2022-12-07T13:31:13.718Z,6.40
2022-12-07T13:33:44.522Z,6.50
2022-12-07T13:36:32.640Z,6.60
2022-12-07T13:39:01.633Z,6.80
2022-12-07T13:41:30.800Z,6.60
2022-12-07T13:44:02.977Z,6.80
2022-12-07T13:47:00.648Z,6.60
2022-12-07T13:49:34.040Z,6.40
2022-12-07T13:52:25.282Z,6.20
2022-12-07T13:55:07.570Z,6.20
2022-12-07T13:57:37.114Z,6.30
2022-12-07T14:00:14.910Z,6.30
2022-12-07T14:03:02.625Z,6.30
2022-12-07T14:05:31.437Z,6.30
2022-12-07T14:08:23.659Z,6.30
2022-12-07T14:10:50.625Z,6.10
2022-12-07T14:13:42.088Z,6.00
2022-12-07T14:16:30.076Z,5.90
2022-12-07T14:19:00.301Z,5.80
2022-12-07T14:21:30.297Z,5.90
2022-12-07T14:24:23.581Z,5.80
2022-12-07T14:26:52.105Z,5.80
2022-12-07T14:29:30.720Z,5.80
2022-12-07T14:32:11.402Z,5.90
2022-12-07T14:34:38.275Z,5.90
2022-12-07T14:37:10.143Z,5.90
2022-12-07T14:39:37.014Z,6.00
2022-12-07T14:42:04.065Z,5.90
2022-12-07T14:44:35.706Z,5.80
2022-12-07T14:49:50.221Z,6.00
2022-12-07T14:55:29.506Z,5.90
2022-12-07T14:57:57.389Z,5.90
2022-12-07T15:00:26.922Z,5.80
2022-12-07T15:02:54.873Z,5.70
2022-12-07T15:05:22.092Z,5.70
2022-12-07T15:07:50.616Z,5.60
2022-12-07T15:10:31.025Z,5.50
2022-12-07T15:13:22.139Z,5.60
2022-12-07T15:15:52.015Z,5.50
2022-12-07T15:18:20.845Z,5.60
2022-12-07T15:20:48.532Z,5.40
2022-12-07T15:23:16.231Z,5.20
2022-12-07T15:25:49.110Z,5.30
2022-12-07T15:28:16.221Z,5.30
2022-12-07T15:30:44.941Z,5.30
2022-12-07T15:33:14.032Z,5.40
2022-12-07T15:35:43.069Z,5.20
2022-12-07T15:38:10.027Z,5.30
2022-12-07T15:40:37.440Z,5.30
2022-12-07T15:43:05.073Z,5.20
2022-12-07T15:45:32.027Z,5.20
2022-12-07T15:50:47.024Z,5.10
2022-12-07T15:53:13.947Z,5.00
2022-12-07T15:55:41.285Z,5.00
2022-12-07T15:58:08.447Z,4.90
2022-12-07T16:00:35.531Z,5.20
2022-12-07T16:03:02.532Z,5.20
2022-12-07T16:05:29.618Z,5.10
2022-12-07T16:07:56.599Z,5.20
2022-12-07T16:10:23.681Z,5.00
2022-12-07T16:12:50.542Z,5.00
2022-12-07T16:15:22.844Z,5.00
2022-12-07T16:17:52.486Z,4.90
2022-12-07T16:20:19.432Z,4.80
2022-12-07T16:22:46.362Z,4.80
2022-12-07T16:25:13.334Z,4.80
2022-12-07T16:27:40.850Z,4.60
2022-12-07T16:30:08.649Z,4.50
2022-12-07T16:32:35.714Z,4.60
2022-12-07T16:35:02.815Z,4.50
2022-12-07T16:37:29.974Z,4.80
2022-12-07T16:39:56.942Z,4.80
2022-12-07T16:42:23.950Z,4.50
2022-12-07T16:44:50.929Z,4.50
2022-12-07T16:47:17.892Z,4.80
2022-12-07T16:49:44.938Z,4.60
2022-12-07T16:52:20.645Z,4.80
2022-12-07T16:54:51.404Z,4.60
2022-12-07T16:57:22.872Z,4.50
2022-12-07T16:59:52.394Z,4.70
2022-12-07T17:02:19.926Z,4.50
2022-12-07T17:04:46.864Z,4.50
2022-12-07T17:07:13.816Z,4.70
2022-12-07T17:09:40.709Z,4.70
2022-12-07T17:12:07.781Z,4.70
2022-12-07T17:14:53.133Z,4.80
2022-12-07T17:17:20.277Z,4.60
2022-12-07T17:19:47.304Z,4.50
2022-12-07T17:22:14.295Z,4.40
2022-12-07T17:24:41.284Z,4.40
2022-12-07T17:27:09.135Z,4.10
2022-12-07T17:29:36.201Z,4.10
2022-12-07T17:32:03.197Z,4.10
2022-12-07T17:34:30.122Z,4.00
2022-12-07T17:36:56.985Z,3.90
2022-12-07T17:39:23.876Z,4.10
2022-12-07T17:42:08.938Z,3.90
2022-12-07T17:44:35.793Z,4.00
2022-12-07T17:47:03.957Z,3.90
2022-12-07T17:49:31.264Z,3.80
2022-12-07T17:52:17.213Z,3.80
2022-12-07T17:54:44.511Z,3.80
2022-12-07T17:57:11.614Z,3.90
2022-12-07T17:59:38.673Z,4.10
2022-12-07T18:02:05.936Z,4.10
2022-12-07T18:04:33.486Z,4.10
2022-12-07T18:07:00.440Z,4.20
2022-12-07T18:09:27.455Z,4.10
2022-12-07T18:11:54.401Z,4.00
2022-12-07T18:14:21.363Z,3.90
2022-12-07T18:16:49.773Z,3.90
2022-12-07T18:19:17.214Z,3.80
2022-12-07T18:21:45.069Z,4.10
2022-12-07T18:24:14.461Z,3.90
2022-12-07T18:26:43.061Z,3.90
2022-12-07T18:29:15.121Z,3.80
2022-12-07T18:31:42.262Z,3.80
2022-12-07T18:34:13.092Z,3.70
2022-12-07T18:36:42.794Z,3.70
2022-12-07T18:39:10.413Z,3.70
2022-12-07T18:41:39.593Z,3.70
2022-12-07T18:44:07.893Z,3.50
2022-12-07T18:46:36.407Z,3.50
2022-12-07T18:49:04.746Z,3.40
2022-12-07T18:51:32.575Z,3.50
2022-12-07T18:54:01.437Z,3.60
2022-12-07T18:56:28.954Z,3.60
2022-12-07T18:59:20.216Z,3.50
2022-12-07T19:01:51.802Z,3.40
2022-12-07T19:04:19.459Z,3.50
2022-12-07T19:06:48.259Z,3.50
2022-12-07T19:09:16.833Z,3.80
2022-12-07T19:11:49.789Z,4.10
2022-12-07T19:14:28.158Z,4.00
2022-12-07T19:16:59.444Z,3.80
2022-12-07T19:19:33.780Z,4.20
2022-12-07T19:22:01.449Z,3.90
2022-12-07T19:24:29.254Z,3.80
2022-12-07T19:26:57.449Z,3.80
2022-12-07T19:29:24.462Z,3.70
2022-12-07T19:31:51.539Z,3.60
2022-12-07T19:34:19.606Z,3.60
2022-12-07T19:36:47.304Z,3.50
2022-12-07T19:39:15.939Z,3.50
2022-12-07T19:41:46.576Z,3.40
2022-12-07T19:44:14.463Z,3.40
2022-12-07T19:46:43.384Z,3.30
2022-12-07T19:49:10.411Z,3.30
2022-12-07T19:51:37.406Z,3.40
2022-12-07T19:54:04.538Z,3.60
2022-12-07T19:56:31.878Z,3.50
2022-12-07T19:59:03.298Z,3.40
2022-12-07T20:01:30.810Z,3.50
2022-12-07T20:03:57.798Z,3.50
2022-12-07T20:06:26.098Z,3.30
2022-12-07T20:08:53.514Z,3.20
2022-12-07T20:11:39.264Z,3.40
2022-12-07T20:14:09.738Z,3.30
2022-12-07T20:16:37.355Z,3.20
2022-12-07T20:19:04.571Z,3.20
2022-12-07T20:21:31.516Z,3.20
2022-12-07T20:24:03.780Z,3.10
2022-12-07T20:26:30.799Z,3.00
2022-12-07T20:28:59.984Z,3.00
2022-12-07T20:31:28.752Z,3.00
2022-12-07T20:33:57.657Z,3.00
2022-12-07T20:36:28.021Z,3.10
2022-12-07T20:39:01.278Z,3.10
2022-12-07T20:41:47.081Z,3.00
2022-12-07T20:44:15.491Z,3.10
2022-12-07T20:46:43.591Z,3.00
2022-12-07T20:49:13.691Z,2.90
2022-12-07T20:51:41.174Z,3.10
2022-12-07T20:54:08.456Z,2.80
2022-12-07T20:56:36.218Z,2.90
2022-12-07T20:59:06.011Z,2.90
2022-12-07T21:01:33.372Z,2.80
2022-12-07T21:04:01.553Z,2.80
2022-12-07T21:06:29.971Z,2.80
2022-12-07T21:09:00.084Z,2.80
2022-12-07T21:11:29.659Z,2.70
2022-12-07T21:13:56.668Z,2.70
2022-12-07T21:16:30.268Z,2.70
2022-12-07T21:19:02.534Z,2.70
2022-12-07T21:21:32.071Z,2.60
2022-12-07T21:24:02.346Z,2.60
2022-12-07T21:26:35.748Z,2.60
2022-12-07T21:29:05.397Z,2.50
2022-12-07T21:31:32.898Z,2.50
2022-12-07T21:34:03.437Z,2.50
2022-12-07T21:36:30.938Z,2.50
2022-12-07T21:38:58.801Z,2.50
2022-12-07T21:41:32.159Z,2.40
2022-12-07T21:43:59.981Z,2.50
2022-12-07T21:46:34.238Z,2.40
2022-12-07T21:49:10.134Z,2.40
2022-12-07T21:51:37.552Z,2.40
2022-12-07T21:54:06.009Z,2.40
2022-12-07T21:56:40.046Z,2.30
2022-12-07T21:59:21.213Z,2.30
2022-12-07T22:01:50.174Z,2.20
2022-12-07T22:04:21.732Z,2.20
2022-12-07T22:06:49.574Z,2.10
2022-12-07T22:09:18.854Z,2.00
2022-12-07T22:11:46.733Z,2.00
2022-12-07T22:14:32.723Z,2.00
2022-12-07T22:16:59.815Z,2.00
2022-12-07T22:19:27.210Z,1.90
2022-12-07T22:21:54.146Z,2.00
2022-12-07T22:24:21.176Z,1.90
2022-12-07T22:26:48.066Z,1.90
2022-12-07T22:29:16.161Z,1.80
2022-12-07T22:31:43.104Z,1.80
2022-12-07T22:34:17.529Z,2.00
2022-12-07T22:36:45.486Z,2.00
2022-12-07T22:39:13.325Z,1.90
2022-12-07T22:41:40.341Z,1.80
2022-12-07T22:44:08.462Z,1.60
2022-12-07T22:46:36.182Z,1.50
2022-12-07T22:49:03.913Z,1.40
2022-12-07T22:51:34.383Z,1.60
2022-12-07T22:54:03.050Z,1.70
2022-12-07T22:56:33.560Z,1.60
2022-12-07T22:59:00.897Z,1.80
2022-12-07T23:01:28.171Z,1.70
2022-12-07T23:03:55.195Z,1.70
2022-12-07T23:06:24.733Z,1.70
2022-12-07T23:08:52.455Z,1.60
2022-12-07T23:11:41.119Z,1.60
2022-12-07T23:14:19.699Z,1.60
2022-12-07T23:16:46.766Z,1.60
2022-12-07T23:19:14.364Z,1.60
2022-12-07T23:21:42.795Z,1.50
2022-12-07T23:24:13.452Z,1.50
2022-12-07T23:26:42.098Z,1.70
2022-12-07T23:29:14.310Z,1.70
2022-12-07T23:31:44.079Z,1.60
2022-12-07T23:34:11.262Z,1.60
2022-12-07T23:36:38.291Z,1.60
2022-12-07T23:39:05.314Z,1.60
2022-12-07T23:41:32.414Z,1.40
2022-12-07T23:44:00.447Z,1.40
2022-12-07T23:46:31.602Z,1.30
2022-12-07T23:49:02.492Z,1.40
2022-12-07T23:51:29.924Z,1.30
2022-12-07T23:53:59.295Z,1.30
2022-12-07T23:56:29.189Z,1.40
2022-12-07T23:58:57.190Z,1.50
